Time;durP1;ratioP1;P1;durP2;ratioP2;P2;SDS_P1;SDS_P2;PMS_P1;PMS_P2;Temp;Humidity;BMP_temperature;BMP_pressure;BME280_temperature;BME280_humidity;BME280_pressure;Samples;Min_cycle;Max_cycle;Signal;HPM_P1;HPM_P2
2022/11/09 00:00:44;;;;;;;5.57;4.37;;;;;;;10.63;nan;97737.50;5055053;28;20678;-69
2022/11/09 00:03:11;;;;;;;4.43;3.87;;;;;;;10.64;nan;97757.75;5055426;28;20212;-69
2022/11/09 00:05:38;;;;;;;9.30;4.80;;;;;;;10.64;nan;97749.78;5055584;28;20544;-69
2022/11/09 00:08:09;;;;;;;5.97;5.13;;;;;;;10.74;nan;97750.03;5055072;28;20748;-69
2022/11/09 00:10:36;;;;;;;5.93;5.20;;;;;;;10.73;nan;97745.75;5055283;28;20225;-69
2022/11/09 00:13:03;;;;;;;8.77;5.87;;;;;;;10.82;nan;97745.19;5054984;28;20216;-69
2022/11/09 00:15:30;;;;;;;10.37;5.97;;;;;;;10.81;nan;97745.41;5054775;28;20713;-69
2022/11/09 00:18:00;;;;;;;10.17;5.47;;;;;;;10.79;nan;97747.50;5054922;28;20687;-69
2022/11/09 00:20:27;;;;;;;9.50;6.17;;;;;;;10.78;nan;97741.34;5055863;28;20251;-69
2022/11/09 00:22:53;;;;;;;7.57;5.83;;;;;;;10.78;nan;97738.69;5055152;28;20309;-69
2022/11/09 00:25:20;;;;;;;8.93;5.63;;;;;;;10.80;nan;97736.63;5054658;28;20209;-69
2022/11/09 00:27:46;;;;;;;8.73;5.80;;;;;;;10.91;nan;97735.06;5054896;28;20290;-69
2022/11/09 00:30:13;;;;;;;8.23;5.87;;;;;;;10.81;nan;97726.78;5055076;28;20338;-69
2022/11/09 00:32:39;;;;;;;9.87;5.57;;;;;;;10.90;nan;97722.78;5054896;28;20221;-69
2022/11/09 00:35:06;;;;;;;6.67;5.10;;;;;;;10.89;nan;97737.09;5054799;28;20208;-69
2022/11/09 00:37:32;;;;;;;9.47;5.87;;;;;;;10.81;nan;97738.25;5054832;28;20209;-69
2022/11/09 00:39:59;;;;;;;7.70;5.10;;;;;;;10.78;nan;97733.38;5054325;28;20216;-69
2022/11/09 00:42:25;;;;;;;6.63;4.87;;;;;;;10.82;nan;97739.06;5054464;28;20220;-69
2022/11/09 00:44:51;;;;;;;9.43;5.20;;;;;;;10.82;nan;97739.06;5054714;28;20264;-70
2022/11/09 00:47:18;;;;;;;5.87;4.67;;;;;;;10.79;nan;97731.53;5054679;28;20284;-69
2022/11/09 00:49:44;;;;;;;5.10;4.60;;;;;;;10.80;nan;97731.31;5054305;28;20668;-70
2022/11/09 00:52:11;;;;;;;5.63;4.77;;;;;;;10.73;nan;97721.81;5054506;28;20585;-70
2022/11/09 00:54:37;;;;;;;8.17;4.67;;;;;;;10.88;nan;97719.53;5054509;28;20205;-70
2022/11/09 00:57:04;;;;;;;7.80;5.20;;;;;;;10.83;nan;97724.72;5054261;28;20225;-69
2022/11/09 00:59:30;;;;;;;7.57;5.30;;;;;;;10.71;nan;97721.22;5054293;28;20217;-69
2022/11/09 01:01:56;;;;;;;7.60;4.70;;;;;;;10.78;nan;97720.09;5053912;28;20230;-70
2022/11/09 01:04:23;;;;;;;6.93;5.10;;;;;;;10.71;nan;97714.06;5054022;28;20210;-70
2022/11/09 01:06:49;;;;;;;6.23;4.73;;;;;;;10.69;nan;97712.69;5053843;28;20654;-70
2022/11/09 01:09:16;;;;;;;8.90;5.20;;;;;;;10.66;nan;97723.75;5054151;28;20202;-70
2022/11/09 01:11:42;;;;;;;8.13;5.10;;;;;;;10.65;nan;97730.94;5053826;28;20226;-70
2022/11/09 01:14:10;;;;;;;8.17;5.10;;;;;;;10.60;nan;97725.47;5053876;28;20212;-70
2022/11/09 01:16:36;;;;;;;6.13;5.30;;;;;;;10.59;nan;97728.38;5054066;28;20227;-70
2022/11/09 01:19:03;;;;;;;6.17;4.60;;;;;;;10.60;nan;97730.00;5053763;28;20216;-70
2022/11/09 01:21:29;;;;;;;7.13;5.27;;;;;;;10.69;nan;97740.06;5053817;28;20244;-69
2022/11/09 01:23:57;;;;;;;7.83;5.87;;;;;;;10.61;nan;97731.59;5054064;28;20190;-70
2022/11/09 01:26:23;;;;;;;7.93;5.43;;;;;;;10.64;nan;97731.16;5053639;28;20559;-70
2022/11/09 01:28:50;;;;;;;10.33;5.73;;;;;;;10.72;nan;97731.63;5053914;28;20215;-70
2022/11/09 01:31:21;;;;;;;9.23;6.00;;;;;;;10.64;nan;97736.47;5053774;28;20320;-70
2022/11/09 01:33:48;;;;;;;7.40;5.30;;;;;;;10.72;nan;97731.63;5053552;28;20674;-70
2022/11/09 01:36:18;;;;;;;6.90;5.40;;;;;;;10.79;nan;97739.53;5053675;28;20230;-70
2022/11/09 01:38:45;;;;;;;6.80;5.00;;;;;;;10.74;nan;97742.06;5053762;28;20206;-70
2022/11/09 01:41:18;;;;;;;7.87;5.43;;;;;;;10.76;nan;97732.00;5053667;28;20220;-70
2022/11/09 01:43:45;;;;;;;7.53;5.43;;;;;;;10.74;nan;97737.56;5053709;28;20535;-69
2022/11/09 01:46:28;;;;;;;6.97;4.87;;;;;;;10.76;nan;97729.34;5053605;28;20212;-69
2022/11/09 01:49:00;;;;;;;7.50;5.13;;;;;;;10.75;nan;97730.38;5054198;28;20189;-69
2022/11/09 01:51:31;;;;;;;8.10;5.57;;;;;;;10.77;nan;97725.66;5053533;28;20310;-69
2022/11/09 01:54:12;;;;;;;8.80;5.43;;;;;;;10.73;nan;97727.94;5053604;28;20198;-70
2022/11/09 01:56:39;;;;;;;6.93;5.00;;;;;;;10.80;nan;97719.88;5053492;28;20213;-70
2022/11/09 01:59:11;;;;;;;6.83;4.97;;;;;;;10.77;nan;97725.66;5053519;28;20212;-70
2022/11/09 02:01:38;;;;;;;8.37;5.30;;;;;;;10.75;nan;97723.22;5053407;28;20231;-70
2022/11/09 02:04:10;;;;;;;7.97;5.37;;;;;;;10.84;nan;97723.69;5053428;28;20218;-70
2022/11/09 02:06:37;;;;;;;9.17;5.73;;;;;;;10.90;nan;97730.75;5053439;28;20186;-69
2022/11/09 02:09:12;;;;;;;8.93;6.07;;;;;;;10.90;nan;97730.75;5053083;28;20205;-69
2022/11/09 02:11:38;;;;;;;7.17;5.73;;;;;;;10.88;nan;97724.84;5053405;28;20237;-69
2022/11/09 02:14:06;;;;;;;7.43;4.97;;;;;;;10.88;nan;97722.19;5057376;28;20206;-70
2022/11/09 02:16:34;;;;;;;7.07;5.77;;;;;;;10.87;nan;97734.66;5057422;28;20225;-69
2022/11/09 02:19:01;;;;;;;8.27;5.70;;;;;;;10.84;nan;97726.34;5057138;28;20213;-70
2022/11/09 02:21:30;;;;;;;8.03;5.50;;;;;;;10.89;nan;97739.78;5057267;28;20242;-70
2022/11/09 02:23:57;;;;;;;7.70;5.20;;;;;;;10.94;nan;97731.91;5057421;28;20239;-70
2022/11/09 02:26:30;;;;;;;9.60;4.97;;;;;;;10.98;nan;97733.91;5057327;28;20205;-70
2022/11/09 02:28:58;;;;;;;5.07;4.23;;;;;;;11.18;nan;97748.72;5057356;28;20191;-70
2022/11/09 02:31:29;;;;;;;3.23;2.53;;;;;;;11.90;nan;97732.28;5057192;28;20615;-70
2022/11/09 02:34:02;;;;;;;3.67;2.00;;;;;;;12.02;nan;97725.09;5057242;28;20197;-69
2022/11/09 02:36:29;;;;;;;3.77;1.70;;;;;;;12.45;nan;97731.53;5056778;28;20217;-70
2022/11/09 02:38:56;;;;;;;2.20;2.00;;;;;;;12.53;nan;97733.81;5057089;28;20214;-70
2022/11/09 02:41:23;;;;;;;4.70;2.10;;;;;;;12.57;nan;97739.50;5057045;28;20224;-70
2022/11/09 02:43:52;;;;;;;2.40;2.07;;;;;;;12.55;nan;97744.25;5056967;28;20207;-70
2022/11/09 02:46:45;;;;;;;3.80;2.27;;;;;;;12.57;nan;97753.63;5056943;28;20204;-70
2022/11/09 02:49:11;;;;;;;3.93;2.33;;;;;;;12.66;nan;97760.19;5054871;28;20300;-69
2022/11/09 02:51:38;;;;;;;3.47;2.00;;;;;;;12.59;nan;97770.22;5056531;28;20714;-69
2022/11/09 02:54:05;;;;;;;3.47;2.30;;;;;;;12.57;nan;97771.50;5056780;28;20203;-69
2022/11/09 02:56:31;;;;;;;4.07;2.30;;;;;;;12.57;nan;97766.16;5056684;28;20227;-69
2022/11/09 02:58:57;;;;;;;2.30;2.10;;;;;;;12.54;nan;97774.63;5056647;28;20215;-69
2022/11/09 03:01:24;;;;;;;5.37;2.57;;;;;;;12.56;nan;97770.69;5056336;28;20736;-70
2022/11/09 03:03:50;;;;;;;2.40;2.20;;;;;;;12.51;nan;97769.75;5056740;28;20302;-70
2022/11/09 03:06:16;;;;;;;4.83;2.10;;;;;;;12.55;nan;97768.25;5056280;28;20214;-69
2022/11/09 03:08:43;;;;;;;3.93;2.23;;;;;;;12.44;nan;97769.09;5056482;28;20607;-70
2022/11/09 03:11:09;;;;;;;4.90;2.60;;;;;;;12.39;nan;97785.00;5056454;28;20231;-69
2022/11/09 03:13:36;;;;;;;3.40;2.23;;;;;;;12.44;nan;97783.22;5056520;28;20211;-70
2022/11/09 03:16:08;;;;;;;2.80;2.27;;;;;;;12.28;nan;97784.00;5056366;28;20246;-69
2022/11/09 03:18:35;;;;;;;5.50;2.73;;;;;;;12.07;nan;97779.28;5056427;28;20212;-69
2022/11/09 03:21:05;;;;;;;3.80;2.40;;;;;;;11.87;nan;97772.72;5056187;28;20232;-70
2022/11/09 03:23:32;;;;;;;3.67;2.23;;;;;;;11.67;nan;97780.25;5056029;28;20280;-70
2022/11/09 03:25:59;;;;;;;5.93;2.60;;;;;;;11.50;nan;97780.13;5056056;28;20204;-70
2022/11/09 03:28:25;;;;;;;4.97;2.53;;;;;;;11.32;nan;97786.34;5055829;28;20208;-70
2022/11/09 03:30:52;;;;;;;3.73;3.00;;;;;;;11.22;nan;97789.81;5055989;28;20234;-70
2022/11/09 03:33:18;;;;;;;4.50;2.70;;;;;;;11.10;nan;97784.47;5056138;28;20210;-70
2022/11/09 03:35:45;;;;;;;3.13;2.53;;;;;;;11.04;nan;97780.84;5055718;28;20208;-70
2022/11/09 03:38:12;;;;;;;3.20;2.80;;;;;;;10.98;nan;97784.44;5056151;28;20241;-70
2022/11/09 03:40:38;;;;;;;3.63;2.70;;;;;;;10.92;nan;97781.88;5055630;28;20651;-70
2022/11/09 03:43:05;;;;;;;3.03;2.73;;;;;;;10.88;nan;97794.00;5055593;28;20567;-70
2022/11/09 03:45:31;;;;;;;3.87;3.03;;;;;;;10.83;nan;97788.56;5055522;28;20693;-70
2022/11/09 03:47:59;;;;;;;4.47;3.33;;;;;;;10.72;nan;97800.78;5055756;28;20213;-70
2022/11/09 03:50:27;;;;;;;5.90;3.20;;;;;;;10.69;nan;97795.09;5056138;28;20226;-70
2022/11/09 03:52:53;;;;;;;4.33;2.70;;;;;;;10.70;nan;97794.88;5055431;28;20207;-70
2022/11/09 03:55:20;;;;;;;3.50;3.20;;;;;;;10.65;nan;97785.94;5055626;28;20216;-70
2022/11/09 03:57:47;;;;;;;6.57;3.23;;;;;;;10.68;nan;97788.16;5055836;28;20221;-70
2022/11/09 04:00:16;;;;;;;3.90;3.10;;;;;;;10.63;nan;97783.50;5055204;28;20235;-70
2022/11/09 04:02:43;;;;;;;6.07;3.10;;;;;;;10.69;nan;97785.25;5055658;28;20212;-70
2022/11/09 04:05:10;;;;;;;4.40;2.90;;;;;;;10.67;nan;97786.53;5055250;28;20678;-70
2022/11/09 04:07:37;;;;;;;3.97;3.23;;;;;;;10.69;nan;97789.78;5055654;28;20551;-70
2022/11/09 04:10:05;;;;;;;4.17;3.00;;;;;;;10.67;nan;97799.81;5054978;28;20205;-70
2022/11/09 04:12:31;;;;;;;5.10;3.50;;;;;;;10.65;nan;97793.94;5054921;28;20216;-70
2022/11/09 04:14:58;;;;;;;7.53;4.50;;;;;;;10.66;nan;97787.56;5055222;28;20205;-70
2022/11/09 04:17:24;;;;;;;6.23;4.50;;;;;;;10.62;nan;97802.34;5054720;28;20723;-70
2022/11/09 04:19:51;;;;;;;6.80;4.83;;;;;;;10.60;nan;97804.44;5055026;28;20217;-69
2022/11/09 04:22:17;;;;;;;7.40;6.00;;;;;;;10.54;nan;97810.66;5054868;28;20224;-69
2022/11/09 04:24:44;;;;;;;10.57;6.60;;;;;;;10.52;nan;97812.69;5054672;28;20339;-70
2022/11/09 04:27:10;;;;;;;6.97;5.47;;;;;;;10.53;nan;97816.97;5054704;28;20205;-69
2022/11/09 04:29:36;;;;;;;7.43;6.10;;;;;;;10.51;nan;97816.41;5054648;28;20210;-69
2022/11/09 04:32:03;;;;;;;9.33;6.67;;;;;;;10.48;nan;97814.19;5054882;28;20230;-70
2022/11/09 04:34:29;;;;;;;10.03;6.90;;;;;;;10.46;nan;97817.06;5054032;28;20668;-70
2022/11/09 04:36:56;;;;;;;7.80;6.93;;;;;;;10.42;nan;97817.75;5054317;28;20229;-70
2022/11/09 04:39:22;;;;;;;9.97;7.63;;;;;;;10.38;nan;97822.69;5054969;28;20218;-70
2022/11/09 04:41:48;;;;;;;9.30;7.07;;;;;;;10.40;nan;97825.13;5054449;28;20225;-70
2022/11/09 04:44:15;;;;;;;12.70;7.83;;;;;;;10.38;nan;97812.06;5054503;28;20258;-70
2022/11/09 04:46:41;;;;;;;8.83;6.93;;;;;;;10.42;nan;97815.09;5054452;28;20210;-69
2022/11/09 04:49:08;;;;;;;8.73;6.80;;;;;;;10.39;nan;97812.88;5054557;28;20209;-69
2022/11/09 04:51:34;;;;;;;7.90;6.97;;;;;;;10.42;nan;97807.91;5054342;28;20247;-69
2022/11/09 04:54:00;;;;;;;11.73;7.63;;;;;;;10.36;nan;97792.06;5054379;28;20205;-69
2022/11/09 04:56:27;;;;;;;13.47;9.00;;;;;;;10.33;nan;97789.84;5054538;28;20205;-69
2022/11/09 04:58:53;;;;;;;11.57;8.50;;;;;;;10.33;nan;97792.50;5054148;28;20288;-70
2022/11/09 05:01:19;;;;;;;12.47;8.50;;;;;;;10.35;nan;97796.56;5053908;28;20221;-70
2022/11/09 05:03:46;;;;;;;11.80;8.63;;;;;;;10.39;nan;97799.59;5054141;28;20215;-70
2022/11/09 05:08:56;;;;;;;15.70;9.30;;;;;;;10.35;nan;97791.25;5054250;28;20172;-70
2022/11/09 05:11:23;;;;;;;14.40;9.43;;;;;;;10.33;nan;97789.84;5054137;28;20315;-70
2022/11/09 05:13:50;;;;;;;11.43;9.17;;;;;;;10.32;nan;97791.69;5053991;28;20213;-70
2022/11/09 05:16:17;;;;;;;12.90;9.10;;;;;;;10.31;nan;97799.88;5053835;28;20201;-70
2022/11/09 05:18:44;;;;;;;11.80;8.37;;;;;;;10.31;nan;97800.69;5053557;28;20664;-70
2022/11/09 05:21:10;;;;;;;10.37;7.60;;;;;;;10.32;nan;97794.34;5053613;28;20227;-70
2022/11/09 05:26:21;;;;;;;9.70;7.53;;;;;;;10.23;nan;97794.88;5053925;28;20185;-70
2022/11/09 05:28:47;;;;;;;10.40;7.67;;;;;;;10.20;nan;97784.69;5053775;28;20209;-70
2022/11/09 05:31:14;;;;;;;8.13;7.17;;;;;;;10.11;nan;97780.72;5053290;28;20235;-70
2022/11/09 05:33:40;;;;;;;9.93;6.87;;;;;;;10.10;nan;97779.91;5053296;28;20694;-70
2022/11/09 05:36:07;;;;;;;8.90;6.77;;;;;;;10.08;nan;97776.66;5053644;28;20215;-70
2022/11/09 05:38:33;;;;;;;9.33;7.40;;;;;;;10.09;nan;97777.50;5053444;28;20591;-70
2022/11/09 05:40:59;;;;;;;9.20;7.17;;;;;;;10.11;nan;97772.75;5053475;28;20266;-70
2022/11/09 05:43:26;;;;;;;11.30;7.90;;;;;;;10.08;nan;97779.31;5053127;28;20216;-70
2022/11/09 05:45:52;;;;;;;9.50;7.50;;;;;;;10.06;nan;97778.75;5052698;28;20292;-70
2022/11/09 05:48:18;;;;;;;11.27;7.40;;;;;;;10.03;nan;97771.19;5053288;28;20284;-70
2022/11/09 05:50:45;;;;;;;9.33;7.17;;;;;;;10.05;nan;97776.31;5053837;28;20224;-70
2022/11/09 05:53:12;;;;;;;10.13;7.50;;;;;;;10.02;nan;97772.22;5053402;28;20215;-70
2022/11/09 05:55:39;;;;;;;13.53;6.80;;;;;;;9.99;nan;97774.47;5052929;28;20215;-70
2022/11/09 05:58:05;;;;;;;9.77;7.20;;;;;;;10.01;nan;97767.13;5052691;28;20695;-70
2022/11/09 06:00:32;;;;;;;13.63;7.33;;;;;;;10.02;nan;97766.09;5052981;28;20251;-70
2022/11/09 06:03:06;;;;;;;12.80;7.73;;;;;;;10.01;nan;97773.22;5052949;28;20244;-70
2022/11/09 06:05:33;;;;;;;9.07;7.53;;;;;;;10.02;nan;97771.41;5052931;28;20285;-70
2022/11/09 06:08:10;;;;;;;11.43;7.83;;;;;;;9.98;nan;97765.72;5053005;28;20201;-70
2022/11/09 06:10:36;;;;;;;9.90;7.23;;;;;;;10.00;nan;97770.81;5052434;28;20229;-70
2022/11/09 06:13:03;;;;;;;8.83;7.73;;;;;;;9.99;nan;97774.47;5052420;28;20209;-70
2022/11/09 06:15:29;;;;;;;10.17;8.30;;;;;;;9.96;nan;97775.75;5053021;28;20211;-70
2022/11/09 06:17:57;;;;;;;10.97;7.47;;;;;;;10.03;nan;97792.44;5052434;28;20699;-70
2022/11/09 06:20:26;;;;;;;10.47;8.20;;;;;;;10.01;nan;97789.16;5052723;28;20228;-70
2022/11/09 06:23:00;;;;;;;9.27;7.60;;;;;;;10.08;nan;97803.22;5052405;28;20217;-70
2022/11/09 06:25:28;;;;;;;10.10;8.50;;;;;;;10.01;nan;97814.94;5052799;28;20207;-70
2022/11/09 06:27:56;;;;;;;9.83;8.23;;;;;;;10.05;nan;97819.59;5052519;28;20206;-70
2022/11/09 06:30:23;;;;;;;11.53;7.73;;;;;;;10.06;nan;97812.44;5052699;28;20267;-70
2022/11/09 06:32:49;;;;;;;12.27;8.50;;;;;;;10.06;nan;97815.09;5051852;28;20599;-70
2022/11/09 06:35:16;;;;;;;11.53;7.90;;;;;;;10.05;nan;97813.50;5051972;28;20732;-70
2022/11/09 06:37:42;;;;;;;8.80;7.17;;;;;;;10.00;nan;97811.44;5051786;28;20247;-70
2022/11/09 06:40:09;;;;;;;7.20;6.07;;;;;;;10.14;nan;97807.63;5052879;28;20212;-70
2022/11/09 06:42:35;;;;;;;8.90;7.23;;;;;;;10.16;nan;97810.09;5052275;28;20201;-70
2022/11/09 06:45:02;;;;;;;8.87;6.73;;;;;;;10.24;nan;97821.25;5052186;28;20216;-70
2022/11/09 06:47:28;;;;;;;9.40;7.00;;;;;;;10.23;nan;97808.97;5052044;28;20676;-70
2022/11/09 06:49:54;;;;;;;7.93;6.97;;;;;;;10.24;nan;97801.81;5052252;28;20211;-70
2022/11/09 06:52:21;;;;;;;11.23;7.20;;;;;;;10.22;nan;97817.16;5051745;28;20692;-70
2022/11/09 06:54:48;;;;;;;9.17;6.97;;;;;;;10.18;nan;97827.41;5052270;28;20258;-70
2022/11/09 06:57:14;;;;;;;10.37;7.20;;;;;;;10.18;nan;97837.25;5051921;28;20678;-70
2022/11/09 06:59:40;;;;;;;9.13;7.33;;;;;;;10.17;nan;97833.78;5054978;28;20209;-70
2022/11/09 07:02:09;;;;;;;6.87;6.17;;;;;;;10.21;nan;97836.78;5055950;28;20266;-70
2022/11/09 07:04:36;;;;;;;8.07;7.27;;;;;;;10.19;nan;97842.31;5055994;28;20201;-71
2022/11/09 07:07:02;;;;;;;7.60;6.70;;;;;;;10.19;nan;97852.16;5056056;28;20209;-71
2022/11/09 07:09:29;;;;;;;9.17;6.77;;;;;;;10.22;nan;97849.84;5056268;28;20205;-70
2022/11/09 07:11:55;;;;;;;8.87;7.17;;;;;;;10.24;nan;97846.97;5055513;28;20312;-71
2022/11/09 07:14:22;;;;;;;11.87;7.23;;;;;;;10.29;nan;97861.22;5055835;28;20206;-71
2022/11/09 07:16:48;;;;;;;9.47;7.13;;;;;;;10.16;nan;97895.09;5056009;28;20232;-70
2022/11/09 07:19:15;;;;;;;9.27;6.70;;;;;;;10.22;nan;97931.38;5055540;28;20304;-70
2022/11/09 07:21:41;;;;;;;11.03;7.73;;;;;;;10.34;nan;97930.47;5055286;28;20244;-70
2022/11/09 07:24:08;;;;;;;10.57;6.60;;;;;;;10.55;nan;97923.91;5055522;28;20213;-70
2022/11/09 07:26:34;;;;;;;8.57;6.27;;;;;;;10.66;nan;97925.81;5055733;28;20209;-70
2022/11/09 07:29:00;;;;;;;6.30;5.07;;;;;;;10.71;nan;97908.16;5055736;28;20208;-70
2022/11/09 07:31:28;;;;;;;6.97;5.60;;;;;;;10.74;nan;97922.84;5055430;28;20236;-71
2022/11/09 07:33:57;;;;;;;8.83;6.07;;;;;;;10.73;nan;97913.25;5054881;28;20221;-70
2022/11/09 07:36:23;;;;;;;6.90;6.20;;;;;;;10.65;nan;97910.91;5055050;28;20208;-69
2022/11/09 07:38:49;;;;;;;9.13;6.37;;;;;;;10.68;nan;97910.47;5038569;28;20697;-70
2022/11/09 07:41:16;;;;;;;8.60;6.33;;;;;;;10.68;nan;97900.63;5035667;28;20222;-70
2022/11/09 07:43:42;;;;;;;9.30;5.73;;;;;;;10.69;nan;97904.09;5035389;28;20213;-70
2022/11/09 07:46:09;;;;;;;11.43;6.97;;;;;;;10.67;nan;97906.16;5035643;28;20275;-69
2022/11/09 07:48:35;;;;;;;8.53;6.07;;;;;;;10.74;nan;97905.06;5035428;28;20198;-69
2022/11/09 07:51:02;;;;;;;7.57;5.73;;;;;;;10.77;nan;97901.16;5035117;28;20236;-69
2022/11/09 07:53:28;;;;;;;8.73;5.33;;;;;;;10.81;nan;97902.28;5035629;28;20205;-69
2022/11/09 07:55:59;;;;;;;7.47;5.60;;;;;;;10.83;nan;97894.94;5035091;28;20209;-70
2022/11/09 07:58:26;;;;;;;7.37;5.40;;;;;;;10.87;nan;97896.09;5035012;28;20221;-70
2022/11/09 08:00:53;;;;;;;6.20;5.57;;;;;;;10.87;nan;97891.56;5035012;28;20320;-70
2022/11/09 08:03:20;;;;;;;8.17;5.23;;;;;;;10.89;nan;97892.19;5035164;28;20212;-69
2022/11/09 08:05:47;;;;;;;8.47;5.93;;;;;;;10.92;nan;97904.22;5034957;28;20299;-69
2022/11/09 08:08:15;;;;;;;8.57;5.57;;;;;;;10.98;nan;97906.78;5034774;28;20217;-70
2022/11/09 08:10:42;;;;;;;6.20;5.43;;;;;;;10.98;nan;97908.63;5033959;28;20222;-69
2022/11/09 08:13:14;;;;;;;8.37;6.43;;;;;;;10.99;nan;97911.06;5034971;28;20567;-69
2022/11/09 08:15:41;;;;;;;8.07;5.70;;;;;;;11.07;nan;97912.59;5034872;28;20221;-70
2022/11/09 08:18:12;;;;;;;8.40;5.30;;;;;;;11.07;nan;97911.81;5035070;28;20231;-69
2022/11/09 08:20:39;;;;;;;6.87;5.80;;;;;;;11.08;nan;97909.72;5034602;28;20230;-69
2022/11/09 08:23:05;;;;;;;6.47;5.77;;;;;;;11.13;nan;97917.03;5034331;28;20215;-69
2022/11/09 08:25:35;;;;;;;7.23;5.37;;;;;;;11.21;nan;97906.06;5034405;28;20214;-69
2022/11/09 08:28:02;;;;;;;6.50;5.20;;;;;;;11.20;nan;97901.78;5034364;28;20604;-70
2022/11/09 08:30:29;;;;;;;9.13;5.63;;;;;;;11.14;nan;97898.16;5034673;28;20229;-69
2022/11/09 08:32:58;;;;;;;9.43;6.33;;;;;;;11.10;nan;97898.84;5034671;28;20235;-69
2022/11/09 08:35:25;;;;;;;5.33;4.80;;;;;;;11.14;nan;97902.69;5034458;28;20213;-69
2022/11/09 08:37:52;;;;;;;9.70;5.97;;;;;;;11.11;nan;97903.13;5034135;28;20221;-69
2022/11/09 08:40:21;;;;;;;11.37;6.97;;;;;;;11.07;nan;97903.81;5034725;28;20228;-69
2022/11/09 08:42:48;;;;;;;7.27;5.60;;;;;;;11.15;nan;97909.63;5033960;28;20208;-72
2022/11/09 08:45:15;;;;;;;9.77;5.87;;;;;;;11.21;nan;97908.72;5034050;28;20293;-72
2022/11/09 08:47:41;;;;;;;6.83;4.10;;;;;;;11.32;nan;97910.63;5034159;28;20209;-72
2022/11/09 08:50:09;;;;;;;5.30;4.10;;;;;;;11.38;nan;97911.53;5034688;28;20212;-73
2022/11/09 08:52:36;;;;;;;4.77;3.17;;;;;;;11.47;nan;97897.69;5034271;28;20212;-72
2022/11/09 08:55:03;;;;;;;4.07;3.10;;;;;;;11.61;nan;97899.16;5034736;28;20231;-71
2022/11/09 08:57:30;;;;;;;6.03;2.97;;;;;;;11.65;nan;97900.31;5034177;28;20232;-71
2022/11/09 08:59:56;;;;;;;6.73;3.70;;;;;;;11.76;nan;97907.50;5034116;28;20687;-71
2022/11/09 09:02:23;;;;;;;2.90;2.70;;;;;;;11.84;nan;97898.38;5034620;28;20208;-72
2022/11/09 09:04:49;;;;;;;4.87;2.80;;;;;;;11.90;nan;97903.59;5034423;28;20212;-72
2022/11/09 09:07:15;;;;;;;2.67;2.40;;;;;;;11.90;nan;97889.47;5034214;28;20204;-71
2022/11/09 09:09:42;;;;;;;4.03;2.50;;;;;;;11.89;nan;97906.47;5033926;28;20574;-72
2022/11/09 09:12:09;;;;;;;4.33;2.73;;;;;;;11.89;nan;97899.28;5033992;28;20235;-72
2022/11/09 09:14:36;;;;;;;4.40;2.80;;;;;;;11.84;nan;97904.50;5033612;28;20230;-71
2022/11/09 09:17:03;;;;;;;3.50;3.13;;;;;;;11.78;nan;97913.41;5033628;28;20568;-71
2022/11/09 09:19:29;;;;;;;4.47;3.43;;;;;;;11.76;nan;97907.50;5033934;28;20236;-71
2022/11/09 09:21:56;;;;;;;5.57;3.77;;;;;;;11.70;nan;97904.97;5033256;28;20245;-72
2022/11/09 09:24:22;;;;;;;5.67;4.33;;;;;;;11.73;nan;97912.47;5034104;28;20259;-71
2022/11/09 09:26:49;;;;;;;5.60;4.27;;;;;;;11.75;nan;97921.84;5033819;28;20209;-72
2022/11/09 09:29:15;;;;;;;5.03;3.77;;;;;;;11.76;nan;97934.13;5033339;28;20213;-71
2022/11/09 09:31:41;;;;;;;5.17;3.80;;;;;;;11.81;nan;97928.13;5033409;28;20228;-71
2022/11/09 09:34:10;;;;;;;4.77;4.27;;;;;;;11.82;nan;97932.41;5033667;28;20219;-72
2022/11/09 09:36:36;;;;;;;7.80;4.60;;;;;;;11.84;nan;97931.13;5034228;28;20208;-71
2022/11/09 09:39:03;;;;;;;5.70;4.63;;;;;;;11.97;nan;97935.44;5033501;28;20232;-71
2022/11/09 09:41:51;;;;;;;7.60;4.80;;;;;;;11.93;nan;97935.09;5033331;28;20783;-71
2022/11/09 09:44:39;;;;;;;8.33;4.00;;;;;;;11.99;nan;97930.69;5033322;28;20192;-71
2022/11/09 09:47:05;;;;;;;6.13;4.30;;;;;;;12.06;nan;97929.53;5034238;28;20212;-72
2022/11/09 09:49:35;;;;;;;5.27;4.73;;;;;;;12.19;nan;97939.97;5033623;28;20211;-71
2022/11/09 09:52:11;;;;;;;6.53;4.60;;;;;;;12.40;nan;97934.06;5033463;28;20228;-71
2022/11/09 09:54:44;;;;;;;4.97;3.03;;;;;;;12.41;nan;97932.19;5033496;28;20194;-72
2022/11/09 09:57:19;;;;;;;3.73;3.20;;;;;;;12.44;nan;97934.41;5033280;28;20188;-71
2022/11/09 09:59:50;;;;;;;2.70;2.30;;;;;;;12.53;nan;97927.66;5032977;28;20213;-72
2022/11/09 10:02:23;;;;;;;2.97;1.53;;;;;;;12.63;nan;97930.53;5033371;28;20200;-71
2022/11/09 10:04:51;;;;;;;1.73;1.07;;;;;;;12.72;nan;97929.97;5033307;28;20289;-71
2022/11/09 10:07:59;;;;;;;2.43;1.17;;;;;;;12.93;nan;97931.19;5032970;28;20669;-71
2022/11/09 10:10:54;;;;;;;1.03;1.03;;;;;;;13.05;nan;97926.63;5033200;28;20225;-71
2022/11/09 10:13:35;;;;;;;1.20;1.10;;;;;;;12.97;nan;97937.69;5033096;28;20197;-72
2022/11/09 10:16:09;;;;;;;1.20;1.10;;;;;;;12.98;nan;97924.09;5033284;28;20202;-72
2022/11/09 10:19:24;;;;;;;1.20;1.20;;;;;;;13.16;nan;97918.59;5033171;28;20214;-71
2022/11/09 10:22:03;;;;;;;4.07;2.20;;;;;;;13.05;nan;97924.78;5028019;28;20377;-71
2022/11/09 10:24:58;;;;;;;3.63;2.40;;;;;;;12.86;nan;97923.31;5033235;28;20190;-72
2022/11/09 10:27:27;;;;;;;3.10;2.40;;;;;;;12.91;nan;97912.75;5030835;28;20201;-72
2022/11/09 10:29:54;;;;;;;5.30;2.70;;;;;;;12.99;nan;97914.25;5033015;28;20212;-73
2022/11/09 10:32:23;;;;;;;4.17;3.03;;;;;;;13.03;nan;97910.84;5031592;28;20205;-72
2022/11/09 10:35:03;;;;;;;3.80;2.60;;;;;;;13.12;nan;97908.63;5036472;28;20208;-72
2022/11/09 10:37:40;;;;;;;3.47;3.17;;;;;;;13.11;nan;97910.47;5036838;28;20196;-71
2022/11/09 10:40:27;;;;;;;3.93;3.20;;;;;;;13.04;nan;97895.66;5037087;28;20190;-72
2022/11/09 10:43:02;;;;;;;4.80;2.83;;;;;;;13.13;nan;97897.72;5036432;28;20201;-72
2022/11/09 10:45:37;;;;;;;6.20;3.40;;;;;;;13.12;nan;97893.41;5036567;28;20668;-71
2022/11/09 10:48:05;;;;;;;4.03;2.63;;;;;;;13.27;nan;97895.56;5036878;28;20212;-72
2022/11/09 10:50:34;;;;;;;3.17;2.67;;;;;;;13.36;nan;97886.13;5036417;28;20713;-72
2022/11/09 10:53:08;;;;;;;3.00;2.70;;;;;;;13.27;nan;97895.56;5036833;28;20216;-72
2022/11/09 10:55:36;;;;;;;2.77;2.57;;;;;;;13.27;nan;97885.69;5036184;28;20601;-72
2022/11/09 10:58:18;;;;;;;3.07;2.60;;;;;;;13.13;nan;97881.72;5035931;28;20229;-72
2022/11/09 11:01:00;;;;;;;3.07;2.77;;;;;;;13.15;nan;97882.25;5034953;28;20595;-69
2022/11/09 11:03:27;;;;;;;3.90;2.43;;;;;;;13.36;nan;97891.44;5036539;28;20206;-69
2022/11/09 11:05:59;;;;;;;4.30;3.27;;;;;;;13.29;nan;97882.81;5036040;28;20687;-69
2022/11/09 11:08:30;;;;;;;4.87;4.30;;;;;;;13.29;nan;97880.91;5036408;28;20201;-69
2022/11/09 11:11:07;;;;;;;4.60;2.87;;;;;;;13.46;nan;97878.28;5036202;28;20237;-69
2022/11/09 11:13:34;;;;;;;11.20;8.97;;;;;;;13.37;nan;97888.53;5036138;28;20209;-69
2022/11/09 11:16:00;;;;;;;4.83;3.80;;;;;;;13.42;nan;97877.13;5036099;28;20284;-69
2022/11/09 11:18:27;;;;;;;2.80;2.60;;;;;;;13.59;nan;97870.78;5036163;28;20221;-72
2022/11/09 11:21:07;;;;;;;4.17;3.60;;;;;;;13.75;nan;97872.63;5036321;28;20234;-73
2022/11/09 11:23:35;;;;;;;7.30;6.50;;;;;;;13.76;nan;97876.94;5036001;28;20197;-73
2022/11/09 11:26:25;;;;;;;4.13;3.40;;;;;;;13.79;nan;97871.09;5035915;28;20212;-73
2022/11/09 11:29:04;;;;;;;3.73;3.23;;;;;;;13.76;nan;97870.78;5036119;28;20557;-71
2022/11/09 11:31:31;;;;;;;3.17;2.90;;;;;;;13.86;nan;97862.91;5035461;28;20230;-73
2022/11/09 11:33:58;;;;;;;4.33;3.83;;;;;;;13.74;nan;97856.84;5035393;28;20576;-73
2022/11/09 11:37:02;;;;;;;6.93;5.10;;;;;;;13.69;nan;97857.56;5035992;28;20212;-73
2022/11/09 11:39:38;;;;;;;4.43;3.93;;;;;;;13.66;nan;97855.38;5035720;28;20221;-73
2022/11/09 11:42:31;;;;;;;4.47;3.50;;;;;;;13.64;nan;97857.50;5035507;28;20221;-73
2022/11/09 11:45:18;;;;;;;5.27;3.80;;;;;;;13.62;nan;97851.56;5035375;28;20663;-73
2022/11/09 11:47:45;;;;;;;8.23;4.40;;;;;;;13.62;nan;97851.56;5035543;28;20621;-73
2022/11/09 11:50:36;;;;;;;3.87;3.00;;;;;;;13.67;nan;97851.69;5035475;28;20204;-73
2022/11/09 11:53:19;;;;;;;4.70;3.17;;;;;;;13.69;nan;97849.56;5035294;28;20201;-73
2022/11/09 11:55:48;;;;;;;5.37;3.23;;;;;;;13.76;nan;97855.56;5035386;28;20208;-73
2022/11/09 11:58:33;;;;;;;3.33;2.50;;;;;;;13.85;nan;97856.78;5034766;28;20705;-72
2022/11/09 12:01:25;;;;;;;7.40;2.30;;;;;;;13.98;nan;97851.06;5035210;28;20230;-72
2022/11/09 12:04:02;;;;;;;3.73;2.67;;;;;;;14.01;nan;97850.59;5034991;28;20210;-72